createdAt,value
2023-03-06T00:02:58.390Z,2.37
2023-03-06T00:06:20.460Z,2.20
2023-03-06T00:09:42.085Z,2.20
2023-03-06T00:13:08.732Z,1.90
2023-03-06T00:16:30.526Z,1.97
2023-03-06T00:19:51.897Z,1.70
2023-03-06T00:23:13.757Z,2.10
2023-03-06T00:26:36.704Z,2.00
2023-03-06T00:30:01.353Z,1.77
2023-03-06T00:33:23.072Z,1.90
2023-03-06T00:36:44.548Z,2.00
2023-03-06T00:40:07.596Z,2.07
2023-03-06T00:43:29.455Z,2.47
2023-03-06T00:46:52.833Z,2.10
2023-03-06T00:50:14.776Z,2.17
2023-03-06T00:53:36.620Z,2.40
2023-03-06T00:56:58.461Z,2.27
2023-03-06T01:00:20.820Z,2.60
2023-03-06T01:03:45.913Z,2.43
2023-03-06T01:07:08.401Z,2.37
2023-03-06T01:10:29.995Z,2.57
2023-03-06T01:13:51.856Z,2.57
2023-03-06T01:17:15.936Z,2.97
2023-03-06T01:20:39.912Z,2.87
2023-03-06T01:24:01.796Z,3.07
2023-03-06T01:27:23.655Z,2.43
2023-03-06T01:30:45.136Z,2.47
2023-03-06T01:34:06.887Z,2.37
2023-03-06T01:37:30.481Z,2.73
2023-03-06T01:40:52.621Z,2.67
2023-03-06T01:44:14.566Z,2.33
2023-03-06T01:47:36.592Z,2.83
2023-03-06T01:50:58.234Z,2.50
2023-03-06T01:54:25.190Z,2.53
2023-03-06T01:57:50.102Z,2.60
2023-03-06T02:01:12.841Z,2.10
2023-03-06T02:04:36.476Z,2.20
2023-03-06T02:07:59.390Z,2.30
2023-03-06T02:11:24.224Z,2.53
2023-03-06T02:14:46.922Z,2.23
2023-03-06T02:18:08.872Z,2.20
2023-03-06T02:21:33.612Z,2.37
2023-03-06T02:25:00.850Z,2.37
2023-03-06T02:28:25.993Z,2.37
2023-03-06T02:31:47.500Z,2.07
2023-03-06T02:35:19.341Z,2.13
2023-03-06T02:38:48.160Z,2.30
2023-03-06T02:42:09.832Z,1.70
2023-03-06T02:45:36.979Z,2.00
2023-03-06T02:48:58.805Z,1.63
2023-03-06T02:52:20.831Z,1.77
2023-03-06T02:55:42.446Z,1.67
2023-03-06T02:59:04.232Z,1.87
2023-03-06T03:02:27.551Z,1.50
2023-03-06T03:05:49.010Z,1.30
2023-03-06T03:09:24.136Z,1.23
2023-03-06T03:12:45.531Z,1.47
2023-03-06T03:16:10.496Z,1.57
2023-03-06T03:19:33.458Z,1.20
2023-03-06T03:22:56.747Z,1.40
2023-03-06T03:26:20.500Z,1.57
2023-03-06T03:29:49.108Z,1.20
2023-03-06T03:33:11.434Z,1.37
2023-03-06T03:36:34.451Z,1.47
2023-03-06T03:39:57.541Z,1.40
2023-03-06T03:43:19.368Z,1.50
2023-03-06T03:46:41.230Z,1.20
2023-03-06T03:50:08.331Z,1.43
2023-03-06T03:53:32.220Z,1.70
2023-03-06T03:56:53.931Z,1.73
2023-03-06T04:00:23.364Z,1.37
2023-03-06T04:03:55.917Z,1.40
2023-03-06T04:07:17.687Z,1.60
2023-03-06T04:10:41.069Z,1.50
2023-03-06T04:14:03.983Z,1.37
2023-03-06T04:17:26.318Z,1.57
2023-03-06T04:20:50.140Z,2.00
2023-03-06T04:24:13.368Z,2.00
2023-03-06T04:27:36.262Z,1.80
2023-03-06T04:30:58.430Z,1.70
2023-03-06T04:34:20.732Z,2.40
2023-03-06T04:37:42.592Z,1.80
2023-03-06T04:41:04.524Z,2.03
2023-03-06T04:44:27.980Z,1.73
2023-03-06T04:47:50.005Z,2.00
2023-03-06T04:51:12.479Z,2.03
2023-03-06T04:54:34.445Z,2.00
2023-03-06T04:57:56.172Z,2.57
2023-03-06T05:01:19.522Z,2.10
2023-03-06T05:04:41.059Z,2.00
2023-03-06T05:08:03.326Z,1.90
2023-03-06T05:11:25.201Z,2.50
2023-03-06T05:14:48.110Z,2.10
2023-03-06T05:18:11.360Z,2.67
2023-03-06T05:21:32.928Z,1.93
2023-03-06T05:24:54.858Z,1.73
2023-03-06T05:28:16.643Z,1.90
2023-03-06T05:31:38.058Z,1.80
2023-03-06T05:35:01.282Z,1.80
2023-03-06T05:38:23.449Z,2.13
2023-03-06T05:41:44.976Z,2.00
2023-03-06T05:45:07.820Z,2.27
2023-03-06T05:48:29.568Z,1.80
2023-03-06T05:51:52.823Z,1.63
2023-03-06T05:55:15.526Z,1.50
2023-03-06T05:58:37.531Z,1.60
2023-03-06T06:01:59.252Z,1.30
2023-03-06T06:05:21.075Z,1.30
2023-03-06T06:08:44.813Z,1.20
2023-03-06T06:12:07.036Z,1.20
2023-03-06T06:15:29.017Z,1.60
2023-03-06T06:18:50.948Z,1.70
2023-03-06T06:22:13.161Z,1.57
2023-03-06T06:25:36.401Z,1.93
2023-03-06T06:29:00.100Z,2.20
2023-03-06T06:32:21.907Z,1.80
2023-03-06T06:35:43.663Z,1.97
2023-03-06T06:39:06.335Z,3.20
2023-03-06T06:42:35.824Z,2.90
2023-03-06T06:46:24.582Z,2.07
2023-03-06T06:49:41.560Z,3.37
2023-03-06T06:53:03.205Z,2.40
2023-03-06T06:56:24.583Z,2.87
2023-03-06T06:59:47.488Z,3.20
2023-03-06T07:03:09.148Z,3.33
2023-03-06T07:06:31.529Z,3.00
2023-03-06T07:09:53.479Z,2.90
2023-03-06T07:13:15.230Z,2.47
2023-03-06T07:16:38.658Z,2.20
2023-03-06T07:20:00.679Z,2.40
2023-03-06T07:23:22.691Z,2.60
2023-03-06T07:26:47.822Z,3.17
2023-03-06T07:30:13.192Z,2.43
2023-03-06T07:33:36.625Z,2.90
2023-03-06T07:36:58.216Z,3.03
2023-03-06T07:40:20.779Z,2.87
2023-03-06T07:43:43.229Z,3.50
2023-03-06T07:47:05.247Z,3.17
2023-03-06T07:50:28.356Z,3.40
2023-03-06T07:53:50.867Z,3.23
2023-03-06T07:57:14.062Z,3.13
2023-03-06T08:00:35.968Z,3.80
2023-03-06T08:03:57.847Z,3.30
2023-03-06T08:07:21.256Z,3.47
2023-03-06T08:10:49.045Z,3.53
2023-03-06T08:14:10.733Z,3.37
2023-03-06T08:17:33.184Z,2.77
2023-03-06T08:21:03.063Z,2.40
2023-03-06T08:24:26.047Z,2.93
2023-03-06T08:27:48.005Z,3.70
2023-03-06T08:31:11.261Z,3.63
2023-03-06T08:34:32.900Z,2.93
2023-03-06T08:37:54.589Z,2.60
2023-03-06T08:41:20.232Z,2.60
2023-03-06T08:44:42.835Z,2.63
2023-03-06T08:48:04.881Z,2.33
2023-03-06T08:51:28.024Z,2.93
2023-03-06T08:54:49.455Z,2.63
2023-03-06T08:58:13.195Z,2.00
2023-03-06T09:01:37.749Z,2.43
2023-03-06T09:05:01.285Z,1.67
2023-03-06T09:08:22.994Z,1.93
2023-03-06T09:11:44.615Z,2.17
2023-03-06T09:15:09.233Z,2.10
2023-03-06T09:18:31.550Z,2.33
2023-03-06T09:21:54.011Z,2.70
2023-03-06T09:25:20.182Z,2.80
2023-03-06T09:28:42.360Z,1.90
2023-03-06T09:32:05.698Z,2.10
2023-03-06T09:35:27.512Z,1.93
2023-03-06T09:38:50.419Z,2.20
2023-03-06T09:42:17.212Z,2.43
2023-03-06T09:45:39.174Z,2.40
2023-03-06T09:49:15.427Z,2.27
2023-03-06T09:52:44.590Z,1.80
2023-03-06T09:56:11.981Z,1.97
2023-03-06T09:59:34.388Z,1.77
2023-03-06T10:03:08.955Z,2.30
2023-03-06T10:06:35.222Z,2.57
2023-03-06T10:10:00.895Z,2.60
2023-03-06T10:13:28.209Z,2.47
2023-03-06T10:16:50.284Z,2.30
2023-03-06T10:20:20.605Z,2.40
2023-03-06T10:23:52.598Z,2.10
2023-03-06T10:27:29.939Z,2.33
2023-03-06T10:30:59.992Z,2.50
2023-03-06T10:34:23.993Z,2.10
2023-03-06T10:37:46.099Z,1.87
2023-03-06T10:41:22.208Z,2.20
2023-03-06T10:44:44.335Z,2.50
2023-03-06T10:48:12.854Z,2.70
2023-03-06T10:51:35.576Z,2.20
2023-03-06T10:55:23.400Z,1.73
2023-03-06T10:58:46.389Z,1.80
2023-03-06T11:02:25.553Z,2.03
2023-03-06T11:05:57.723Z,2.10
2023-03-06T11:09:23.874Z,2.03
2023-03-06T11:12:57.194Z,1.63
2023-03-06T11:16:26.101Z,1.67
2023-03-06T11:19:47.661Z,1.77
2023-03-06T11:23:17.000Z,1.80
2023-03-06T11:26:44.715Z,1.73
2023-03-06T11:30:12.922Z,2.00
2023-03-06T11:33:41.017Z,1.73
2023-03-06T11:37:07.812Z,1.67
2023-03-06T11:40:37.379Z,2.17
2023-03-06T11:44:06.367Z,2.20
2023-03-06T11:47:33.164Z,2.03
2023-03-06T11:51:00.802Z,1.80
2023-03-06T11:54:23.057Z,1.90
2023-03-06T11:57:52.450Z,1.97
2023-03-06T12:01:23.614Z,2.07
2023-03-06T12:04:55.118Z,2.53
2023-03-06T12:08:41.094Z,2.30
2023-03-06T12:12:18.681Z,2.63
2023-03-06T12:15:59.356Z,2.43
2023-03-06T12:19:37.016Z,3.00
2023-03-06T12:23:14.973Z,2.30
2023-03-06T12:26:52.112Z,2.40
2023-03-06T12:30:41.301Z,2.77
2023-03-06T12:34:15.834Z,2.50
2023-03-06T12:37:51.751Z,2.03
2023-03-06T12:41:27.238Z,2.10
2023-03-06T12:45:04.868Z,2.20
2023-03-06T12:48:29.460Z,1.77
2023-03-06T12:51:52.512Z,1.97
2023-03-06T12:55:19.381Z,1.67
2023-03-06T13:01:58.444Z,1.97
2023-03-06T13:05:57.865Z,1.90
2023-03-06T13:09:23.479Z,2.13
2023-03-06T13:12:55.765Z,1.87
2023-03-06T13:16:25.588Z,1.40
2023-03-06T13:19:49.550Z,1.40
2023-03-06T13:23:51.281Z,1.63
2023-03-06T13:27:13.799Z,1.73
2023-03-06T13:30:46.799Z,2.00
2023-03-06T13:34:35.394Z,1.37
2023-03-06T13:37:59.901Z,1.57
2023-03-06T13:41:44.974Z,1.13
2023-03-06T13:45:09.916Z,0.90
2023-03-06T13:48:44.631Z,1.13
2023-03-06T13:52:11.712Z,1.50
2023-03-06T13:55:46.721Z,1.30
2023-03-06T13:59:29.187Z,0.90
2023-03-06T14:03:26.737Z,0.90
2023-03-06T14:07:07.958Z,0.90
2023-03-06T14:10:34.540Z,0.90
2023-03-06T14:13:58.942Z,1.07
2023-03-06T14:17:28.143Z,1.00
2023-03-06T14:20:55.643Z,0.90
2023-03-06T14:24:18.627Z,0.90
2023-03-06T14:27:43.908Z,1.00
2023-03-06T14:31:07.698Z,0.97
2023-03-06T14:34:31.392Z,0.80
2023-03-06T14:37:56.158Z,0.90
2023-03-06T14:41:26.783Z,0.90
2023-03-06T14:44:49.706Z,0.93
2023-03-06T14:48:16.590Z,0.90
2023-03-06T14:51:43.716Z,1.10
2023-03-06T14:55:12.380Z,0.90
2023-03-06T14:58:39.240Z,0.90
2023-03-06T15:02:03.911Z,1.10
2023-03-06T15:05:30.215Z,1.00
2023-03-06T15:09:00.159Z,1.07
2023-03-06T15:12:37.090Z,1.00
2023-03-06T15:16:01.132Z,0.90
2023-03-06T15:19:24.016Z,1.23
2023-03-06T15:22:51.806Z,0.77
2023-03-06T15:26:29.127Z,0.80
2023-03-06T15:29:51.310Z,1.10
2023-03-06T15:33:25.135Z,1.27
2023-03-06T15:36:48.987Z,1.47
2023-03-06T15:40:20.820Z,1.30
2023-03-06T15:43:42.804Z,1.17
2023-03-06T15:47:08.707Z,0.90
2023-03-06T15:50:30.901Z,1.87
2023-03-06T15:53:54.979Z,1.00
2023-03-06T15:57:23.211Z,1.30
2023-03-06T16:00:45.095Z,1.20
2023-03-06T16:04:06.920Z,1.60
2023-03-06T16:07:28.843Z,1.40
2023-03-06T16:10:52.406Z,1.63
2023-03-06T16:14:21.375Z,1.47
2023-03-06T16:17:43.105Z,1.80
2023-03-06T16:21:06.470Z,3.63
2023-03-06T16:24:28.170Z,4.27
2023-03-06T16:27:55.388Z,3.10
2023-03-06T16:31:18.472Z,3.03
2023-03-06T16:34:40.208Z,3.47
2023-03-06T16:38:02.252Z,3.63
2023-03-06T16:41:24.162Z,4.40
2023-03-06T16:44:46.096Z,3.73
2023-03-06T16:48:14.940Z,3.87
2023-03-06T16:51:39.708Z,2.67
2023-03-06T16:55:01.190Z,2.90
2023-03-06T16:58:23.656Z,1.87
2023-03-06T17:01:45.675Z,1.33
2023-03-06T17:05:10.458Z,2.10
2023-03-06T17:08:32.379Z,2.03
2023-03-06T17:11:54.927Z,1.90
2023-03-06T17:15:16.717Z,1.63
2023-03-06T17:18:38.611Z,1.80
2023-03-06T17:22:01.925Z,1.70
2023-03-06T17:25:23.601Z,1.73
2023-03-06T17:28:45.532Z,5.43
2023-03-06T17:32:07.553Z,4.50
2023-03-06T17:35:29.856Z,3.20
2023-03-06T17:38:56.643Z,1.40
2023-03-06T17:42:18.264Z,2.23
2023-03-06T17:45:39.552Z,3.30
2023-03-06T17:49:01.422Z,3.23
2023-03-06T17:52:23.285Z,3.50
2023-03-06T17:55:46.538Z,3.70
2023-03-06T17:59:08.116Z,5.33
2023-03-06T18:02:29.922Z,5.17
2023-03-06T18:06:00.141Z,4.20
2023-03-06T18:09:21.650Z,3.77
2023-03-06T18:12:44.947Z,3.77
2023-03-06T18:16:08.326Z,6.00
2023-03-06T18:19:30.242Z,7.03
2023-03-06T18:22:51.766Z,6.93
2023-03-06T18:26:15.004Z,5.60
2023-03-06T18:29:38.247Z,6.00
2023-03-06T18:33:00.180Z,5.57
2023-03-06T18:36:24.085Z,7.50
2023-03-06T18:39:45.743Z,4.03
2023-03-06T18:43:07.989Z,3.80
2023-03-06T18:46:33.965Z,2.97
2023-03-06T18:49:55.999Z,2.63
2023-03-06T18:53:18.250Z,3.67
2023-03-06T18:56:44.025Z,3.80
2023-03-06T19:00:07.151Z,2.70
2023-03-06T19:03:30.269Z,2.57
2023-03-06T19:06:52.485Z,2.60
2023-03-06T19:10:14.154Z,2.33
2023-03-06T19:13:36.514Z,1.90
2023-03-06T19:16:58.635Z,1.83
2023-03-06T19:20:21.528Z,1.60
2023-03-06T19:23:43.682Z,2.63
2023-03-06T19:27:05.832Z,2.40
2023-03-06T19:30:27.996Z,1.93
2023-03-06T19:33:50.804Z,1.77
2023-03-06T19:37:13.830Z,1.63
2023-03-06T19:40:35.747Z,1.50
2023-03-06T19:43:59.754Z,1.80
2023-03-06T19:47:21.593Z,1.80
2023-03-06T19:50:43.571Z,1.80
2023-03-06T19:54:06.946Z,2.10
2023-03-06T19:57:28.677Z,2.10
2023-03-06T20:00:50.393Z,2.20
2023-03-06T20:04:12.875Z,2.90
2023-03-06T20:07:34.645Z,3.17
2023-03-06T20:10:58.076Z,2.97
2023-03-06T20:14:19.889Z,3.10
2023-03-06T20:17:41.793Z,3.50
2023-03-06T20:21:05.215Z,3.57
2023-03-06T20:24:27.049Z,3.80
2023-03-06T20:27:50.184Z,3.70
2023-03-06T20:31:16.425Z,3.97
2023-03-06T20:34:38.950Z,3.77
2023-03-06T20:38:00.778Z,4.57
2023-03-06T20:41:24.818Z,4.37
2023-03-06T20:44:47.886Z,4.40
2023-03-06T20:48:09.464Z,4.67
2023-03-06T20:51:33.874Z,5.03
2023-03-06T20:54:55.644Z,5.70
2023-03-06T20:58:17.283Z,5.50
2023-03-06T21:01:42.447Z,5.87
2023-03-06T21:05:04.586Z,5.47
2023-03-06T21:08:26.239Z,5.70
2023-03-06T21:11:49.177Z,5.70
2023-03-06T21:15:12.961Z,6.00
2023-03-06T21:18:36.350Z,6.97
2023-03-06T21:21:58.386Z,6.13
2023-03-06T21:25:19.960Z,6.43
2023-03-06T21:28:41.891Z,6.60
2023-03-06T21:32:03.917Z,6.97
2023-03-06T21:35:27.277Z,7.97
2023-03-06T21:38:50.252Z,6.50
2023-03-06T21:42:12.161Z,7.17
2023-03-06T21:45:34.123Z,6.87
2023-03-06T21:48:56.343Z,6.77
2023-03-06T21:52:19.885Z,6.80
2023-03-06T21:55:41.623Z,7.40
2023-03-06T21:59:03.228Z,6.87
2023-03-06T22:02:25.110Z,7.17
2023-03-06T22:05:46.873Z,7.13
2023-03-06T22:09:12.901Z,8.13
2023-03-06T22:12:35.104Z,8.37
2023-03-06T22:15:56.781Z,8.80
2023-03-06T22:19:19.121Z,7.83
2023-03-06T22:22:40.836Z,7.97
2023-03-06T22:26:05.444Z,9.17
2023-03-06T22:29:27.477Z,8.73
2023-03-06T22:32:49.552Z,9.03
2023-03-06T22:36:13.724Z,8.97
2023-03-06T22:39:35.281Z,10.40
2023-03-06T22:42:58.518Z,11.53
2023-03-06T22:46:20.369Z,13.47
2023-03-06T22:49:42.284Z,10.70
2023-03-06T22:53:04.404Z,10.50
2023-03-06T22:56:27.584Z,9.40
2023-03-06T22:59:50.587Z,9.50
2023-03-06T23:03:12.425Z,8.70
2023-03-06T23:06:36.172Z,7.77
2023-03-06T23:09:58.844Z,8.53
2023-03-06T23:13:39.859Z,8.10
2023-03-06T23:17:21.608Z,7.90
2023-03-06T23:21:02.105Z,8.53
2023-03-06T23:24:42.787Z,7.83
2023-03-06T23:28:04.887Z,7.17
2023-03-06T23:31:29.182Z,8.10
2023-03-06T23:34:52.072Z,8.33
2023-03-06T23:38:13.600Z,8.07
2023-03-06T23:41:35.456Z,7.73
2023-03-06T23:44:57.777Z,7.13
2023-03-06T23:48:19.715Z,7.57
2023-03-06T23:51:43.257Z,7.87
2023-03-06T23:55:05.627Z,7.00
2023-03-06T23:58:27.306Z,7.43
